createdAt,value
2022-08-10T00:01:52.350Z,2.42
2022-08-10T00:04:22.075Z,2.50
2022-08-10T00:06:51.543Z,2.53
2022-08-10T00:09:18.864Z,2.13
2022-08-10T00:11:46.159Z,2.25
2022-08-10T00:14:13.485Z,2.40
2022-08-10T00:16:40.817Z,2.85
2022-08-10T00:19:08.121Z,3.10
2022-08-10T00:21:37.173Z,3.25
2022-08-10T00:24:04.632Z,4.70
2022-08-10T00:28:01.955Z,3.47
2022-08-10T00:29:18.919Z,3.47
2022-08-10T00:31:58.890Z,3.65
2022-08-10T00:34:27.554Z,3.33
2022-08-10T00:36:54.615Z,3.50
2022-08-10T00:39:23.862Z,3.10
2022-08-10T00:42:06.455Z,3.58
2022-08-10T00:44:34.897Z,3.08
2022-08-10T00:47:01.855Z,3.50
2022-08-10T00:49:28.956Z,2.88
2022-08-10T00:51:56.828Z,2.95
2022-08-10T00:54:25.177Z,3.08
2022-08-10T00:57:17.795Z,3.58
2022-08-10T00:59:58.954Z,3.30
2022-08-10T01:02:27.934Z,2.92
2022-08-10T01:05:00.355Z,3.13
2022-08-10T01:07:34.997Z,2.72
2022-08-10T01:10:02.274Z,2.92
2022-08-10T01:12:40.710Z,2.95
2022-08-10T01:15:29.781Z,3.20
2022-08-10T01:17:59.857Z,2.80
2022-08-10T01:20:53.716Z,2.58
2022-08-10T01:23:41.462Z,2.13
2022-08-10T01:26:12.111Z,2.35
2022-08-10T01:29:09.483Z,2.67
2022-08-10T01:31:41.301Z,2.78
2022-08-10T01:34:11.304Z,3.70
2022-08-10T01:36:43.969Z,3.58
2022-08-10T01:39:15.369Z,2.83
2022-08-10T01:41:46.083Z,3.20
2022-08-10T01:44:24.798Z,2.88
2022-08-10T01:46:56.950Z,3.33
2022-08-10T01:49:25.811Z,3.20
2022-08-10T01:51:54.233Z,3.28
2022-08-10T01:54:23.277Z,2.70
2022-08-10T01:56:53.257Z,3.45
2022-08-10T01:59:24.222Z,2.78
2022-08-10T02:01:53.426Z,3.67
2022-08-10T02:04:21.160Z,3.05
2022-08-10T02:06:50.667Z,3.17
2022-08-10T02:09:32.659Z,3.13
2022-08-10T02:12:08.912Z,3.38
2022-08-10T02:14:38.396Z,3.50
2022-08-10T02:17:08.622Z,2.60
2022-08-10T02:19:37.643Z,2.85
2022-08-10T02:22:36.412Z,4.37
2022-08-10T02:24:53.538Z,3.13
2022-08-10T02:27:23.241Z,3.10
2022-08-10T02:32:36.261Z,2.60
2022-08-10T02:35:06.776Z,2.65
2022-08-10T02:37:35.163Z,2.33
2022-08-10T02:40:02.165Z,2.22
2022-08-10T02:45:18.780Z,3.28
2022-08-10T02:45:42.944Z,2.67
2022-08-10T02:48:20.093Z,2.40
2022-08-10T02:50:55.080Z,2.88
2022-08-10T02:53:55.672Z,2.80
2022-08-10T02:56:35.634Z,3.30
2022-08-10T02:59:11.256Z,2.90
2022-08-10T03:01:44.572Z,2.60
2022-08-10T03:04:55.006Z,2.70
2022-08-10T03:07:13.228Z,2.60
2022-08-10T03:09:42.015Z,2.70
2022-08-10T03:12:36.289Z,2.85
2022-08-10T03:15:00.133Z,3.38
2022-08-10T03:17:28.420Z,3.47
2022-08-10T03:20:33.909Z,2.90
2022-08-10T03:22:46.357Z,2.63
2022-08-10T03:25:16.606Z,2.75
2022-08-10T03:27:45.094Z,2.42
2022-08-10T03:30:32.943Z,3.08
2022-08-10T03:33:01.314Z,2.47
2022-08-10T03:35:29.060Z,2.72
2022-08-10T03:37:59.060Z,2.40
2022-08-10T03:40:35.831Z,2.50
2022-08-10T03:43:21.791Z,2.83
2022-08-10T03:45:58.700Z,2.38
2022-08-10T03:48:32.173Z,3.55
2022-08-10T03:51:15.945Z,2.50
2022-08-10T03:54:05.065Z,2.45
2022-08-10T03:56:33.256Z,2.30
2022-08-10T03:59:02.267Z,3.10
2022-08-10T04:02:44.651Z,2.17
2022-08-10T04:04:22.754Z,2.40
2022-08-10T04:06:56.526Z,2.53
2022-08-10T04:09:42.632Z,6.07
2022-08-10T04:12:15.589Z,2.85
2022-08-10T04:14:49.752Z,2.53
2022-08-10T04:18:01.143Z,2.60
2022-08-10T04:20:29.905Z,2.58
2022-08-10T04:23:06.513Z,3.43
2022-08-10T04:25:34.017Z,2.95
2022-08-10T04:28:01.422Z,3.30
2022-08-10T04:30:32.126Z,2.60
2022-08-10T04:33:02.315Z,2.33
2022-08-10T04:35:31.186Z,2.33
2022-08-10T04:37:59.324Z,2.57
2022-08-10T04:40:30.956Z,2.30
2022-08-10T04:43:05.932Z,2.08
2022-08-10T04:45:49.927Z,2.20
2022-08-10T04:48:40.527Z,2.30
2022-08-10T04:51:17.662Z,2.20
2022-08-10T04:54:03.216Z,2.17
2022-08-10T04:56:34.122Z,1.90
2022-08-10T04:59:01.146Z,2.25
2022-08-10T05:02:21.591Z,2.38
2022-08-10T05:04:36.469Z,3.00
2022-08-10T05:07:02.605Z,2.50
2022-08-10T05:09:29.532Z,2.80
2022-08-10T05:11:56.532Z,2.00
2022-08-10T05:14:23.464Z,2.10
2022-08-10T05:16:50.432Z,2.40
2022-08-10T05:19:17.371Z,2.03
2022-08-10T05:22:03.622Z,2.28
2022-08-10T05:24:32.517Z,2.70
2022-08-10T05:27:09.568Z,1.90
2022-08-10T05:29:37.504Z,2.20
2022-08-10T05:32:05.109Z,2.00
2022-08-10T05:34:32.128Z,1.55
2022-08-10T05:36:59.697Z,1.70
2022-08-10T05:39:30.485Z,1.90
2022-08-10T05:42:01.287Z,1.50
2022-08-10T05:44:29.758Z,1.50
2022-08-10T05:46:57.053Z,1.45
2022-08-10T05:49:24.429Z,1.48
2022-08-10T05:51:52.088Z,1.88
2022-08-10T05:54:19.962Z,1.77
2022-08-10T05:56:56.940Z,3.75
2022-08-10T06:00:29.388Z,1.83
2022-08-10T06:02:35.312Z,1.52
2022-08-10T06:05:11.529Z,2.65
2022-08-10T06:07:43.254Z,2.47
2022-08-10T06:10:13.689Z,1.85
2022-08-10T06:12:53.956Z,1.83
2022-08-10T06:15:50.228Z,1.63
2022-08-10T06:18:12.679Z,1.52
2022-08-10T06:20:40.135Z,1.50
2022-08-10T06:23:07.528Z,1.38
2022-08-10T06:28:23.320Z,1.77
2022-08-10T06:30:51.800Z,1.33
2022-08-10T06:33:21.454Z,1.50
2022-08-10T06:38:18.879Z,1.00
2022-08-10T06:40:48.456Z,1.05
2022-08-10T06:46:08.381Z,1.60
2022-08-10T06:48:49.772Z,0.90
2022-08-10T06:51:26.061Z,1.20
2022-08-10T06:53:56.433Z,1.40
2022-08-10T06:56:37.707Z,1.63
2022-08-10T06:59:41.785Z,1.00
2022-08-10T07:02:13.383Z,0.80
2022-08-10T07:04:45.739Z,1.10
2022-08-10T07:07:18.367Z,0.73
2022-08-10T07:09:47.189Z,1.15
2022-08-10T07:12:15.644Z,1.10
2022-08-10T07:14:46.824Z,1.30
2022-08-10T07:17:16.877Z,1.30
2022-08-10T07:19:50.108Z,1.00
2022-08-10T07:23:01.784Z,1.83
2022-08-10T07:25:15.148Z,1.00
2022-08-10T07:27:59.525Z,1.00
2022-08-10T07:30:33.478Z,1.00
2022-08-10T07:33:01.837Z,1.05
2022-08-10T07:35:36.516Z,0.82
2022-08-10T07:38:19.865Z,0.93
2022-08-10T07:40:49.382Z,1.00
2022-08-10T07:45:43.908Z,0.98
2022-08-10T07:48:14.562Z,0.70
2022-08-10T07:50:42.470Z,1.05
2022-08-10T07:53:12.935Z,1.17
2022-08-10T07:56:08.233Z,0.93
2022-08-10T07:58:35.087Z,0.80
2022-08-10T08:01:02.538Z,0.90
2022-08-10T08:03:30.610Z,1.00
2022-08-10T08:06:05.078Z,0.60
2022-08-10T08:08:33.265Z,0.90
2022-08-10T08:11:00.830Z,0.85
2022-08-10T08:13:29.091Z,1.00
2022-08-10T08:16:19.657Z,0.85
2022-08-10T08:18:58.219Z,0.90
2022-08-10T08:24:05.725Z,0.60
2022-08-10T08:24:32.220Z,0.63
2022-08-10T08:27:02.741Z,1.10
2022-08-10T08:32:03.573Z,0.85
2022-08-10T08:34:35.176Z,0.75
2022-08-10T08:37:03.508Z,0.85
2022-08-10T08:39:36.978Z,0.90
2022-08-10T08:42:15.153Z,0.60
2022-08-10T08:44:51.204Z,0.70
2022-08-10T08:48:04.325Z,0.70
2022-08-10T08:50:28.005Z,0.60
2022-08-10T08:53:23.156Z,0.68
2022-08-10T08:56:06.021Z,0.63
2022-08-10T08:58:53.074Z,0.60
2022-08-10T09:01:41.183Z,0.70
2022-08-10T09:04:21.184Z,0.60
2022-08-10T09:06:52.323Z,0.75
2022-08-10T09:09:22.755Z,1.50
2022-08-10T09:12:08.278Z,0.80
2022-08-10T09:14:39.136Z,0.82
2022-08-10T09:17:13.486Z,0.98
2022-08-10T09:19:58.985Z,0.68
2022-08-10T09:22:45.147Z,1.05
2022-08-10T09:25:19.410Z,0.60
2022-08-10T09:27:49.249Z,0.80
2022-08-10T09:30:25.999Z,0.90
2022-08-10T09:36:19.798Z,0.75
2022-08-10T09:36:33.036Z,0.68
2022-08-10T09:39:04.066Z,0.63
2022-08-10T09:41:46.959Z,0.57
2022-08-10T09:44:57.865Z,0.73
2022-08-10T09:48:01.679Z,0.60
2022-08-10T09:51:41.766Z,0.50
2022-08-10T09:53:43.571Z,0.70
2022-08-10T09:56:29.545Z,0.70
2022-08-10T09:59:26.759Z,0.70
2022-08-10T10:02:10.409Z,0.73
2022-08-10T10:04:43.765Z,0.70
2022-08-10T10:07:14.601Z,0.55
2022-08-10T10:09:44.927Z,0.60
2022-08-10T10:12:12.180Z,0.75
2022-08-10T10:14:59.615Z,0.60
2022-08-10T10:17:38.603Z,0.70
2022-08-10T10:20:29.340Z,0.70
2022-08-10T10:23:07.198Z,0.80
2022-08-10T10:25:50.183Z,0.77
2022-08-10T10:28:51.341Z,0.88
2022-08-10T10:31:36.507Z,2.05
2022-08-10T10:34:06.569Z,0.60
2022-08-10T10:36:33.962Z,0.68
2022-08-10T10:39:02.839Z,0.82
2022-08-10T10:42:04.351Z,1.35
2022-08-10T10:44:51.120Z,0.90
2022-08-10T10:47:37.818Z,0.70
2022-08-10T10:50:18.814Z,0.70
2022-08-10T10:52:55.341Z,0.73
2022-08-10T10:55:28.812Z,0.90
2022-08-10T10:58:01.075Z,0.77
2022-08-10T11:00:33.384Z,0.55
2022-08-10T11:03:07.709Z,0.75
2022-08-10T11:05:47.352Z,0.80
2022-08-10T11:08:28.688Z,11.07
2022-08-10T11:11:00.396Z,1.70
2022-08-10T11:14:23.341Z,0.77
2022-08-10T11:16:43.542Z,0.55
2022-08-10T11:19:16.950Z,0.68
2022-08-10T11:22:02.683Z,0.50
2022-08-10T11:24:50.418Z,1.20
2022-08-10T11:27:39.792Z,0.60
2022-08-10T11:30:13.421Z,0.75
2022-08-10T11:33:03.246Z,0.70
2022-08-10T11:35:47.448Z,0.73
2022-08-10T11:38:39.827Z,0.65
2022-08-10T11:42:07.132Z,0.90
2022-08-10T11:44:30.992Z,0.70
2022-08-10T11:47:25.654Z,0.70
2022-08-10T11:49:58.285Z,0.90
2022-08-10T11:52:51.765Z,0.75
2022-08-10T11:55:24.906Z,1.10
2022-08-10T11:57:55.960Z,0.63
2022-08-10T12:00:29.497Z,1.05
2022-08-10T12:03:05.800Z,1.20
2022-08-10T12:05:46.612Z,0.82
2022-08-10T12:10:03.079Z,0.80
2022-08-10T12:11:23.882Z,0.90
2022-08-10T12:14:23.695Z,0.93
2022-08-10T12:16:57.518Z,0.80
2022-08-10T12:19:59.811Z,0.90
2022-08-10T12:22:29.889Z,0.70
2022-08-10T12:27:52.265Z,0.77
2022-08-10T12:30:25.041Z,0.75
2022-08-10T12:33:02.111Z,0.80
2022-08-10T12:35:56.044Z,0.88
2022-08-10T12:38:35.295Z,0.90
2022-08-10T12:41:10.036Z,0.70
2022-08-10T12:44:05.554Z,1.35
2022-08-10T12:47:00.260Z,1.63
2022-08-10T12:49:39.719Z,0.88
2022-08-10T12:52:29.233Z,0.63
2022-08-10T12:54:59.647Z,0.70
2022-08-10T12:57:28.046Z,0.90
2022-08-10T13:00:00.399Z,0.88
2022-08-10T13:02:34.860Z,0.73
2022-08-10T13:05:06.907Z,0.60
2022-08-10T13:08:24.643Z,1.20
2022-08-10T13:10:23.625Z,1.13
2022-08-10T13:12:54.683Z,0.70
2022-08-10T13:15:49.492Z,0.90
2022-08-10T13:18:23.907Z,0.98
2022-08-10T13:21:00.598Z,1.10
2022-08-10T13:23:30.417Z,1.00
2022-08-10T13:26:00.855Z,0.80
2022-08-10T13:28:56.099Z,0.70
2022-08-10T13:32:04.089Z,1.20
2022-08-10T13:34:43.920Z,0.80
2022-08-10T13:37:20.247Z,0.70
2022-08-10T13:39:58.928Z,1.10
2022-08-10T13:42:32.905Z,1.25
2022-08-10T13:45:07.875Z,1.23
2022-08-10T13:47:48.046Z,0.80
2022-08-10T13:50:34.653Z,1.33
2022-08-10T13:53:03.948Z,1.50
2022-08-10T13:55:54.122Z,2.13
2022-08-10T13:58:42.885Z,1.98
2022-08-10T14:01:13.320Z,2.00
2022-08-10T14:03:42.635Z,3.00
2022-08-10T14:06:15.397Z,1.75
2022-08-10T14:08:48.809Z,1.13
2022-08-10T14:11:19.347Z,1.13
2022-08-10T14:14:04.384Z,0.90
2022-08-10T14:16:33.419Z,1.20
2022-08-10T14:19:05.298Z,0.90
2022-08-10T14:21:39.116Z,0.98
2022-08-10T14:24:06.682Z,0.77
2022-08-10T14:26:34.075Z,1.02
2022-08-10T14:29:09.310Z,0.70
2022-08-10T14:31:39.204Z,1.00
2022-08-10T14:34:59.178Z,1.15
2022-08-10T14:37:37.455Z,0.90
2022-08-10T14:40:08.073Z,0.70
2022-08-10T14:42:47.876Z,3.00
2022-08-10T14:45:27.978Z,0.88
2022-08-10T14:48:11.344Z,0.77
2022-08-10T14:50:39.663Z,0.90
2022-08-10T14:53:26.867Z,0.88
2022-08-10T14:56:01.009Z,0.80
2022-08-10T14:59:06.150Z,0.80
2022-08-10T15:02:37.702Z,0.88
2022-08-10T15:04:17.127Z,0.77
2022-08-10T15:06:54.954Z,1.00
2022-08-10T15:09:25.395Z,1.80
2022-08-10T15:12:13.309Z,0.90
2022-08-10T15:14:46.131Z,1.23
2022-08-10T15:17:23.758Z,0.93
2022-08-10T15:20:03.096Z,0.82
2022-08-10T15:22:40.549Z,1.10
2022-08-10T15:25:18.661Z,0.90
2022-08-10T15:30:30.527Z,0.80
2022-08-10T15:34:00.290Z,1.00
2022-08-10T15:36:34.530Z,0.60
2022-08-10T15:39:11.960Z,1.17
2022-08-10T15:41:58.459Z,0.60
2022-08-10T15:44:39.636Z,1.17
2022-08-10T15:47:12.358Z,0.85
2022-08-10T15:49:53.869Z,1.30
2022-08-10T15:52:39.118Z,0.80
2022-08-10T15:55:41.210Z,1.20
2022-08-10T15:58:19.874Z,0.80
2022-08-10T16:02:03.476Z,0.80
2022-08-10T16:04:11.780Z,0.80
2022-08-10T16:07:09.584Z,0.70
2022-08-10T16:10:23.425Z,0.90
2022-08-10T16:12:39.100Z,2.13
2022-08-10T16:15:17.005Z,0.90
2022-08-10T16:17:57.349Z,0.75
2022-08-10T16:20:33.306Z,0.85
2022-08-10T16:23:23.981Z,0.98
2022-08-10T16:25:58.315Z,1.60
2022-08-10T16:28:38.261Z,1.10
2022-08-10T16:31:12.231Z,0.80
2022-08-10T16:33:54.341Z,0.88
2022-08-10T16:36:30.033Z,1.00
2022-08-10T16:39:00.946Z,0.75
2022-08-10T16:42:03.535Z,1.02
2022-08-10T16:44:19.262Z,1.08
2022-08-10T16:46:47.462Z,0.82
2022-08-10T16:49:15.984Z,1.10
2022-08-10T16:51:46.250Z,1.13
2022-08-10T16:54:16.762Z,0.90
2022-08-10T16:56:49.056Z,1.10
2022-08-10T16:59:24.284Z,0.82
2022-08-10T17:01:53.833Z,1.17
2022-08-10T17:07:08.359Z,0.90
2022-08-10T17:09:37.811Z,1.10
2022-08-10T17:12:11.638Z,1.40
2022-08-10T17:14:41.602Z,2.63
2022-08-10T17:17:20.850Z,1.10
2022-08-10T17:19:48.678Z,1.48
2022-08-10T17:22:18.255Z,1.55
2022-08-10T17:28:04.910Z,3.25
2022-08-10T17:30:15.602Z,2.53
2022-08-10T17:32:48.952Z,1.90
2022-08-10T17:35:23.152Z,2.03
2022-08-10T17:37:57.406Z,1.70
2022-08-10T17:40:26.601Z,1.70
2022-08-10T17:42:55.232Z,2.50
2022-08-10T17:45:46.230Z,2.30
2022-08-10T17:48:22.080Z,2.00
2022-08-10T17:50:53.055Z,1.95
2022-08-10T17:53:38.975Z,2.30
2022-08-10T17:56:08.134Z,1.90
2022-08-10T17:58:38.115Z,2.05
2022-08-10T18:01:41.378Z,2.20
2022-08-10T18:04:00.639Z,2.38
2022-08-10T18:06:31.797Z,2.30
2022-08-10T18:09:02.368Z,2.17
2022-08-10T18:11:35.283Z,2.80
2022-08-10T18:14:07.584Z,3.67
2022-08-10T18:16:36.161Z,3.22
2022-08-10T18:19:13.966Z,3.45
2022-08-10T18:21:44.390Z,4.78
2022-08-10T18:24:22.018Z,5.38
2022-08-10T18:26:51.170Z,6.25
2022-08-10T18:29:23.763Z,4.88
2022-08-10T18:31:56.366Z,5.50
2022-08-10T18:34:24.305Z,5.38
2022-08-10T18:36:52.193Z,5.60
2022-08-10T18:39:29.121Z,5.43
2022-08-10T18:42:05.617Z,5.03
2022-08-10T18:44:40.050Z,4.88
2022-08-10T18:47:18.481Z,9.30
2022-08-10T18:49:59.429Z,4.85
2022-08-10T18:52:27.922Z,6.38
2022-08-10T18:55:14.226Z,5.15
2022-08-10T18:57:56.411Z,6.72
2022-08-10T19:00:27.503Z,6.97
2022-08-10T19:03:11.767Z,12.50
2022-08-10T19:05:45.319Z,16.17
2022-08-10T19:09:03.054Z,15.27
2022-08-10T19:11:46.134Z,10.48
2022-08-10T19:14:21.252Z,8.43
2022-08-10T19:17:07.484Z,7.65
2022-08-10T19:19:42.811Z,7.53
2022-08-10T19:22:23.952Z,7.47
2022-08-10T19:25:15.128Z,7.75
2022-08-10T19:27:59.386Z,7.70
2022-08-10T19:30:35.409Z,8.13
2022-08-10T19:33:20.258Z,8.05
2022-08-10T19:36:13.719Z,6.93
2022-08-10T19:38:49.556Z,7.28
2022-08-10T19:41:32.723Z,11.50
2022-08-10T19:44:28.321Z,25.35
2022-08-10T19:47:07.294Z,17.60
2022-08-10T19:49:42.310Z,12.75
2022-08-10T19:52:38.370Z,9.30
2022-08-10T19:55:22.698Z,10.00
2022-08-10T19:57:58.072Z,11.52
2022-08-10T20:00:37.621Z,12.95
2022-08-10T20:03:11.668Z,9.15
2022-08-10T20:06:18.603Z,9.88
2022-08-10T20:09:01.810Z,9.73
2022-08-10T20:11:44.991Z,9.85
2022-08-10T20:14:34.290Z,9.60
2022-08-10T20:17:51.179Z,10.05
2022-08-10T20:20:31.713Z,8.50
2022-08-10T20:23:19.111Z,8.60
2022-08-10T20:25:56.818Z,7.28
2022-08-10T20:28:43.431Z,7.80
2022-08-10T20:31:22.149Z,9.25
2022-08-10T20:34:01.541Z,7.05
2022-08-10T20:39:08.021Z,6.35
2022-08-10T20:42:03.101Z,6.57
2022-08-10T20:44:43.610Z,6.82
2022-08-10T20:47:52.283Z,6.47
2022-08-10T20:50:52.834Z,7.53
2022-08-10T20:53:32.322Z,9.43
2022-08-10T20:56:20.046Z,19.63
2022-08-10T20:58:49.786Z,14.75
2022-08-10T21:04:46.287Z,13.73
2022-08-10T21:07:58.231Z,11.48
2022-08-10T21:10:47.269Z,9.88
2022-08-10T21:13:51.868Z,9.57
2022-08-10T21:16:33.950Z,10.52
2022-08-10T21:19:53.715Z,11.10
2022-08-10T21:22:33.319Z,14.48
2022-08-10T21:25:08.778Z,11.05
2022-08-10T21:28:28.765Z,9.88
2022-08-10T21:31:46.434Z,13.43
2022-08-10T21:34:32.251Z,11.35
2022-08-10T21:37:13.801Z,10.65
2022-08-10T21:39:56.970Z,10.27
2022-08-10T21:42:54.484Z,16.98
2022-08-10T21:46:01.104Z,16.95
2022-08-10T21:49:05.736Z,12.95
2022-08-10T21:52:01.481Z,9.77
2022-08-10T21:55:00.524Z,9.52
2022-08-10T21:58:00.146Z,9.77
2022-08-10T22:00:46.390Z,10.68
2022-08-10T22:03:39.738Z,8.30
2022-08-10T22:06:28.101Z,8.32
2022-08-10T22:09:24.265Z,7.97
2022-08-10T22:12:24.954Z,7.30
2022-08-10T22:16:09.631Z,6.72
2022-08-10T22:18:35.668Z,6.30
2022-08-10T22:21:59.427Z,6.30
2022-08-10T22:25:16.586Z,5.85
2022-08-10T22:28:07.207Z,6.03
2022-08-10T22:31:32.208Z,7.38
2022-08-10T22:34:50.201Z,5.95
2022-08-10T22:38:07.593Z,6.95
2022-08-10T22:40:54.291Z,8.43
2022-08-10T22:43:48.547Z,4.93
2022-08-10T22:46:39.201Z,4.95
2022-08-10T22:49:06.975Z,5.97
2022-08-10T22:51:57.565Z,7.07
2022-08-10T22:55:13.582Z,6.30
2022-08-10T22:58:07.304Z,7.25
2022-08-10T23:00:35.478Z,6.65
2022-08-10T23:03:24.174Z,6.85
2022-08-10T23:05:54.064Z,6.80
2022-08-10T23:08:58.853Z,6.20
2022-08-10T23:11:38.436Z,6.38
2022-08-10T23:14:11.258Z,5.47
2022-08-10T23:17:06.168Z,5.75
2022-08-10T23:19:35.725Z,5.78
2022-08-10T23:22:11.740Z,5.22
2022-08-10T23:24:38.797Z,5.93
2022-08-10T23:27:13.145Z,4.70
2022-08-10T23:30:09.523Z,4.72
2022-08-10T23:32:43.941Z,5.15
2022-08-10T23:36:30.366Z,5.10
2022-08-10T23:38:06.916Z,5.00
2022-08-10T23:40:35.355Z,5.40
2022-08-10T23:43:04.216Z,5.65
2022-08-10T23:45:53.593Z,4.80
2022-08-10T23:48:22.877Z,5.53
2022-08-10T23:51:00.172Z,4.40
2022-08-10T23:53:40.702Z,4.35
2022-08-10T23:56:17.234Z,3.97
2022-08-10T23:58:48.117Z,5.10
